Time;durP1;ratioP1;P1;durP2;ratioP2;P2;SDS_P1;SDS_P2;PMS_P1;PMS_P2;Temp;Humidity;BMP_temperature;BMP_pressure;BME280_temperature;BME280_humidity;BME280_pressure;Samples;Min_cycle;Max_cycle;Signal;HPM_P1;HPM_P2
2022/08/23 00:01:19;;;;;;;;;2.33;1.00;;;;;24.32;52.61;100916.81;5092696;27;45599;-72
2022/08/23 00:03:45;;;;;;;;;1.00;1.00;;;;;24.33;52.15;100918.56;5091895;28;45004;-74
2022/08/23 00:06:10;;;;;;;;;1.00;1.00;;;;;24.33;52.85;100914.97;5090930;28;45025;-74
2022/08/23 00:08:36;;;;;;;;;0.00;0.00;;;;;24.18;52.63;100888.97;5091837;28;45883;-72
2022/08/23 00:11:03;;;;;;;;;1.00;1.00;;;;;24.27;52.44;100911.47;5092801;27;45067;-72
2022/08/23 00:13:28;;;;;;;;;1.00;1.00;;;;;24.33;52.41;100915.84;5092830;27;45169;-72
2022/08/23 00:15:54;;;;;;;;;1.00;1.00;;;;;24.22;52.39;100896.13;5092588;28;45070;-74
2022/08/23 00:18:21;;;;;;;;;2.67;1.00;;;;;24.30;52.33;100915.91;5092731;27;45770;-72
2022/08/23 00:20:46;;;;;;;;;0.00;0.00;;;;;24.24;52.63;100911.53;5091940;28;45039;-72
2022/08/23 00:23:12;;;;;;;;;0.00;0.00;;;;;24.23;52.66;100903.41;5091893;27;45098;-73
2022/08/23 00:25:38;;;;;;;;;1.00;1.00;;;;;24.12;52.78;100878.22;5091730;27;45292;-73
2022/08/23 00:28:04;;;;;;;;;1.00;1.00;;;;;24.33;52.44;100909.50;5091457;27;45080;-74
2022/08/23 00:30:30;;;;;;;;;4.00;1.00;;;;;24.34;52.62;100905.84;5091680;28;45100;-74
2022/08/23 00:32:56;;;;;;;;;3.33;1.00;;;;;23.89;52.28;100826.06;5091939;28;45046;-72
2022/08/23 00:35:21;;;;;;;;;2.67;1.00;;;;;24.40;52.22;100906.56;5091671;27;45018;-74
2022/08/23 00:37:46;;;;;;;;;2.00;2.00;;;;;24.09;52.14;100855.53;5091177;28;49526;-72
2022/08/23 00:40:15;;;;;;;;;1.00;1.00;;;;;24.42;52.05;100907.41;5085444;28;45233;-72
2022/08/23 00:48:25;;;;;;;;;1.00;1.00;;;;;24.42;52.35;100904.66;5084817;28;45116;-72
2022/08/23 00:51:22;;;;;;;;;1.00;1.00;;;;;24.27;52.07;100877.81;5089674;27;45018;-73
2022/08/23 00:53:54;;;;;;;;;1.00;1.00;;;;;24.40;52.31;100900.19;5088514;28;45225;-72
2022/08/23 00:56:23;;;;;;;;;0.00;0.00;;;;;24.31;52.47;100890.41;5092320;27;45082;-73
2022/08/23 00:58:49;;;;;;;;;3.00;1.67;;;;;24.41;52.70;100904.72;5091186;27;46291;-72
2022/08/23 01:01:16;;;;;;;;;1.00;1.00;;;;;24.37;52.45;100897.53;5091487;27;44926;-72
2022/08/23 01:03:45;;;;;;;;;1.00;1.00;;;;;24.26;52.19;100886.94;5091323;27;45104;-74
2022/08/23 01:06:49;;;;;;;;;0.67;0.67;;;;;24.41;52.55;100910.16;5091420;28;45217;-73
2022/08/23 01:09:18;;;;;;;;;2.00;1.00;;;;;24.41;52.90;100916.53;5027527;28;45110;-72
2022/08/23 01:12:15;;;;;;;;;1.67;1.00;;;;;24.25;52.46;100880.59;5026322;28;45216;-72
2022/08/23 01:14:43;;;;;;;;;0.67;0.67;;;;;24.43;52.40;100913.75;5066590;28;45157;-73
2022/08/23 01:17:17;;;;;;;;;1.00;1.00;;;;;24.38;52.38;100908.41;5091769;27;45229;-71
2022/08/23 01:19:49;;;;;;;;;0.33;0.33;;;;;24.42;52.39;100914.72;5091077;27;45917;-72
2022/08/23 01:22:44;;;;;;;;;0.00;0.00;;;;;24.23;52.62;100881.56;5083933;27;44985;-73
2022/08/23 01:25:13;;;;;;;;;0.00;0.00;;;;;24.41;52.33;100918.38;5091599;28;45273;-75
2022/08/23 01:27:39;;;;;;;;;5.00;2.00;;;;;24.40;52.37;100916.56;5091100;28;45282;-71
2022/08/23 01:30:08;;;;;;;;;1.00;1.00;;;;;24.37;52.88;100911.19;5091259;27;45229;-73
2022/08/23 01:32:42;;;;;;;;;0.00;0.00;;;;;23.96;52.74;100851.38;5091249;27;45112;-72
2022/08/23 01:35:07;;;;;;;;;0.00;0.00;;;;;24.19;52.96;100890.78;5090249;27;45012;-73
2022/08/23 01:37:33;;;;;;;;;0.67;0.33;;;;;24.31;53.18;100914.09;5089403;27;45574;-73
2022/08/23 01:39:58;;;;;;;;;2.00;0.33;;;;;24.19;52.97;100905.31;5090506;28;45721;-71
2022/08/23 01:42:24;;;;;;;;;0.00;0.00;;;;;24.24;53.06;100913.38;5083682;27;57606;-71
2022/08/23 01:44:49;;;;;;;;;0.00;0.00;;;;;23.99;53.03;100875.84;5088776;28;45121;-72
2022/08/23 01:47:15;;;;;;;;;0.00;0.00;;;;;24.15;53.20;100913.63;5090906;27;45196;-71
2022/08/23 01:49:40;;;;;;;;;2.00;1.00;;;;;24.07;53.25;100898.38;5089984;27;46154;-72
2022/08/23 01:52:08;;;;;;;;;2.00;1.00;;;;;24.17;53.91;100917.19;5090668;28;45289;-72
2022/08/23 01:54:34;;;;;;;;;0.00;0.00;;;;;24.15;53.52;100914.50;5091097;28;45126;-71
2022/08/23 01:56:59;;;;;;;;;0.00;0.00;;;;;24.14;53.49;100915.47;5094119;27;45044;-72
2022/08/23 01:59:25;;;;;;;;;1.00;1.00;;;;;24.15;53.92;100910.91;5094679;28;45975;-73
2022/08/23 02:01:52;;;;;;;;;0.67;0.00;;;;;24.00;54.03;100902.19;5094223;28;45048;-72
2022/08/23 02:04:17;;;;;;;;;2.00;1.00;;;;;24.06;54.12;100907.47;5093508;28;45195;-71
2022/08/23 02:06:42;;;;;;;;;0.00;0.00;;;;;24.00;53.84;100907.63;5092089;28;45327;-72
2022/08/23 02:09:08;;;;;;;;;1.00;1.00;;;;;24.02;53.96;100904.88;5093529;28;55051;-71
2022/08/23 02:11:40;;;;;;;;;0.00;0.00;;;;;24.02;54.09;100924.91;5093481;27;44847;-71
2022/08/23 02:14:09;;;;;;;;;0.00;0.00;;;;;23.74;54.47;100884.66;5093739;28;45200;-73
2022/08/23 02:16:38;;;;;;;;;1.00;1.00;;;;;23.95;54.39;100928.69;5093428;27;45112;-72
2022/08/23 02:19:07;;;;;;;;;0.00;0.00;;;;;23.94;54.81;100931.47;5094043;27;45240;-72
2022/08/23 02:21:35;;;;;;;;;0.00;0.00;;;;;23.87;54.64;100912.56;5089468;27;45260;-71
2022/08/23 02:24:07;;;;;;;;;0.00;0.00;;;;;23.51;54.62;100862.50;5093898;28;45199;-71
2022/08/23 02:26:35;;;;;;;;;0.00;0.00;;;;;23.72;54.73;100911.06;5090080;27;45154;-73
2022/08/23 02:29:00;;;;;;;;;0.00;0.00;;;;;23.86;54.76;100924.38;5093707;27;45604;-72
2022/08/23 02:31:26;;;;;;;;;0.00;0.00;;;;;23.86;54.77;100929.84;5093337;27;45221;-72
2022/08/23 02:33:51;;;;;;;;;1.67;0.00;;;;;23.73;54.80;100906.50;5092216;27;45194;-72
2022/08/23 02:36:16;;;;;;;;;0.33;0.33;;;;;23.87;54.81;100933.47;5094069;28;45032;-72
2022/08/23 02:38:42;;;;;;;;;1.67;1.67;;;;;23.70;54.90;100903.84;5092183;28;45274;-74
2022/08/23 02:41:08;;;;;;;;;1.33;0.33;;;;;23.80;55.17;100926.34;5092160;28;45126;-73
2022/08/23 02:43:36;;;;;;;;;1.00;1.00;;;;;23.72;55.09;100908.31;5093105;28;45039;-72
2022/08/23 02:46:04;;;;;;;;;0.33;0.33;;;;;23.68;55.00;100898.44;5094085;28;45041;-73
2022/08/23 02:48:31;;;;;;;;;1.33;1.33;;;;;23.81;55.29;100920.84;5093427;27;45225;-74
2022/08/23 02:50:59;;;;;;;;;3.00;0.33;;;;;23.70;55.10;100899.28;5093826;27;45283;-72
2022/08/23 02:53:24;;;;;;;;;0.67;0.67;;;;;23.66;54.99;100908.50;5093773;27;45652;-72
2022/08/23 02:55:49;;;;;;;;;0.00;0.00;;;;;23.68;55.35;100898.44;5085884;28;45261;-72
2022/08/23 02:58:15;;;;;;;;;2.33;0.67;;;;;23.88;55.05;100932.53;5092951;28;61545;-72
2022/08/23 03:00:40;;;;;;;;;0.00;0.00;;;;;23.77;55.30;100907.31;5093703;28;45066;-73
2022/08/23 03:03:06;;;;;;;;;0.00;0.00;;;;;23.90;55.24;100926.09;5093262;27;45242;-72
2022/08/23 03:05:31;;;;;;;;;1.00;1.00;;;;;23.77;55.30;100901.88;5093142;28;44973;-73
2022/08/23 03:07:57;;;;;;;;;0.33;0.33;;;;;23.72;55.36;100896.53;5091917;27;45530;-72
2022/08/23 03:10:23;;;;;;;;;2.00;1.00;;;;;23.90;55.00;100931.53;5108858;27;45142;-73
2022/08/23 03:12:48;;;;;;;;;1.00;1.00;;;;;23.82;55.24;100919.00;5093576;28;45066;-73
2022/08/23 03:15:13;;;;;;;;;1.00;0.00;;;;;23.92;54.73;100939.69;5092725;28;45027;-72
2022/08/23 03:17:39;;;;;;;;;2.00;2.00;;;;;23.87;55.14;100937.09;5092609;28;46100;-74
2022/08/23 03:20:05;;;;;;;;;1.00;0.00;;;;;23.31;54.99;100838.47;5092935;27;45060;-73
2022/08/23 03:22:31;;;;;;;;;0.00;0.00;;;;;23.83;55.24;100934.50;5093090;27;45078;-72
2022/08/23 03:24:56;;;;;;;;;1.67;0.67;;;;;23.77;55.18;100918.25;5093389;27;45147;-72
2022/08/23 03:27:22;;;;;;;;;0.33;0.00;;;;;23.88;55.12;100941.59;5084640;28;57191;-73
2022/08/23 03:29:47;;;;;;;;;2.00;0.67;;;;;23.74;55.41;100916.47;5093112;27;45133;-73
2022/08/23 03:32:13;;;;;;;;;2.33;1.00;;;;;23.87;55.57;100942.56;5091824;27;51694;-72
2022/08/23 03:34:39;;;;;;;;;3.33;2.00;;;;;23.85;55.60;100940.81;5093055;27;45316;-72
2022/08/23 03:37:04;;;;;;;;;1.00;1.00;;;;;23.63;55.30;100902.25;5092549;28;45063;-72
2022/08/23 03:39:29;;;;;;;;;1.00;1.00;;;;;23.83;55.58;100932.66;5092900;28;45078;-72
2022/08/23 03:41:55;;;;;;;;;1.00;1.00;;;;;23.78;55.80;100929.13;5092364;28;45187;-72
2022/08/23 03:44:20;;;;;;;;;1.33;1.33;;;;;23.83;55.08;100935.38;5093447;27;45041;-73
2022/08/23 03:46:46;;;;;;;;;0.67;0.67;;;;;23.83;55.61;100938.09;5092180;28;55621;-72
2022/08/23 03:49:11;;;;;;;;;0.33;0.33;;;;;23.80;55.62;100929.97;5091766;27;45316;-74
2022/08/23 03:51:36;;;;;;;;;0.00;0.00;;;;;23.62;55.52;100900.44;5092752;27;45206;-71
2022/08/23 03:54:03;;;;;;;;;0.67;0.67;;;;;23.66;55.75;100919.41;5093272;28;45209;-74
2022/08/23 03:56:32;;;;;;;;;0.00;0.00;;;;;23.69;55.46;100929.34;5092074;28;45212;-72
2022/08/23 03:59:01;;;;;;;;;1.00;1.00;;;;;23.80;55.93;100953.63;5092396;27;45209;-71
2022/08/23 04:01:26;;;;;;;;;2.00;1.00;;;;;23.80;55.76;100953.63;5092258;28;45105;-72
2022/08/23 04:03:51;;;;;;;;;1.67;1.00;;;;;23.79;55.83;100957.28;5092726;27;44902;-75
2022/08/23 04:06:17;;;;;;;;;0.00;0.00;;;;;23.78;55.98;100964.59;5092475;28;45661;-71
2022/08/23 04:08:44;;;;;;;;;1.00;1.00;;;;;23.77;55.82;100973.69;5091995;27;45028;-72
2022/08/23 04:11:11;;;;;;;;;0.67;0.67;;;;;23.74;56.30;100974.69;5091458;28;45141;-73
2022/08/23 04:13:37;;;;;;;;;0.00;0.00;;;;;23.70;55.85;100975.66;5089129;27;45229;-70
2022/08/23 04:16:04;;;;;;;;;0.00;0.00;;;;;23.70;56.27;100974.78;5092022;28;45302;-73
2022/08/23 04:18:32;;;;;;;;;2.00;0.67;;;;;23.72;56.27;100979.25;5090816;27;45052;-71
2022/08/23 04:21:01;;;;;;;;;0.00;0.00;;;;;23.71;56.48;100976.59;5090534;27;45253;-73
2022/08/23 04:23:27;;;;;;;;;0.00;0.00;;;;;23.69;56.05;100984.81;5092072;27;45344;-72
2022/08/23 04:25:53;;;;;;;;;2.00;2.00;;;;;23.62;56.25;100980.41;5091669;27;45543;-74
2022/08/23 04:28:19;;;;;;;;;1.00;1.00;;;;;23.64;56.70;100981.31;5092450;27;45107;-73
2022/08/23 04:30:45;;;;;;;;;0.00;0.00;;;;;23.66;56.54;100986.69;5092021;28;45075;-71
2022/08/23 04:33:11;;;;;;;;;1.67;0.00;;;;;23.57;56.60;100968.72;5091166;27;45080;-71
2022/08/23 04:35:37;;;;;;;;;1.00;1.00;;;;;23.29;56.07;100917.56;5091854;28;45119;-71
2022/08/23 04:38:02;;;;;;;;;2.00;1.00;;;;;23.71;56.11;100984.78;5083891;28;45280;-74
2022/08/23 04:43:11;;;;;;;;;1.33;1.33;;;;;23.73;56.12;100991.09;5090968;28;45233;-74
2022/08/23 04:45:38;;;;;;;;;1.33;1.33;;;;;23.73;55.92;100993.81;5090815;27;45611;-74
2022/08/23 04:48:04;;;;;;;;;6.33;6.00;;;;;23.73;55.95;100997.44;5090769;27;45039;-72
2022/08/23 04:50:30;;;;;;;;;4.00;3.00;;;;;23.68;56.01;100990.31;5091112;28;44956;-74
2022/08/23 04:52:55;;;;;;;;;35.75;32.25;;;;;23.71;56.30;101006.59;5091934;28;45139;-71
2022/08/23 04:55:21;;;;;;;;;5.67;5.67;;;;;23.70;56.52;100992.03;5091374;27;45094;-73
2022/08/23 04:57:46;;;;;;;;;7.00;5.00;;;;;23.46;56.24;100954.44;5091188;27;45162;-72
2022/08/23 05:00:13;;;;;;;;;3.00;2.00;;;;;23.71;56.34;101006.59;5090669;27;45133;-74
2022/08/23 05:02:39;;;;;;;;;0.00;0.00;;;;;23.73;55.95;100997.44;5089778;28;45126;-71
2022/08/23 05:05:06;;;;;;;;;2.00;1.33;;;;;23.59;55.95;100983.22;5090195;27;45679;-72
2022/08/23 05:07:32;;;;;;;;;0.67;0.67;;;;;23.72;55.94;100997.47;5090482;27;45708;-72
2022/08/23 05:09:57;;;;;;;;;4.33;4.33;;;;;23.61;56.33;100997.75;5091197;27;44991;-72
2022/08/23 05:12:23;;;;;;;;;2.00;2.00;;;;;23.69;56.36;101003.91;5092380;27;45275;-73
2022/08/23 05:14:48;;;;;;;;;1.00;1.00;;;;;23.70;56.19;101011.13;5091535;28;46138;-72
2022/08/23 05:17:13;;;;;;;;;1.00;1.00;;;;;23.72;55.91;101005.66;5088260;27;46251;-72
2022/08/23 05:19:39;;;;;;;;;4.33;4.33;;;;;23.64;56.17;100978.56;5087511;28;46026;-73
2022/08/23 05:22:04;;;;;;;;;3.00;1.00;;;;;23.70;56.17;101007.53;5089868;28;45275;-72
2022/08/23 05:24:30;;;;;;;;;18.00;15.33;;;;;23.77;55.52;101008.28;5088604;28;47281;-72
2022/08/23 05:26:55;;;;;;;;;3.00;3.00;;;;;23.73;55.97;100997.44;5088881;28;44914;-74
2022/08/23 05:29:20;;;;;;;;;2.67;2.67;;;;;23.71;56.25;100992.97;5090824;27;45103;-73
2022/08/23 05:31:46;;;;;;;;;1.00;1.00;;;;;23.74;56.13;101003.78;5089548;28;45344;-71
2022/08/23 05:34:11;;;;;;;;;11.67;9.67;;;;;23.77;56.02;101014.63;5084953;27;56855;-74
2022/08/23 05:36:36;;;;;;;;;5.33;4.00;;;;;23.45;56.39;100953.56;5091731;28;45499;-71
2022/08/23 05:39:04;;;;;;;;;3.67;3.00;;;;;23.77;56.14;101014.63;5090880;28;45077;-74
2022/08/23 05:41:29;;;;;;;;;11.67;10.67;;;;;23.81;56.15;101016.34;5090635;27;45153;-72
2022/08/23 05:43:54;;;;;;;;;1.33;1.33;;;;;23.77;56.38;101008.28;5091173;27;56511;-72
2022/08/23 05:46:21;;;;;;;;;0.33;0.33;;;;;23.73;56.04;101002.00;5093126;27;62522;-71
2022/08/23 05:48:49;;;;;;;;;2.00;1.00;;;;;23.82;56.42;101030.88;5090997;28;45316;-73
2022/08/23 05:51:26;;;;;;;;;5.33;2.33;;;;;23.79;56.50;101011.84;5092868;28;45202;-73
2022/08/23 05:53:53;;;;;;;;;3.33;3.33;;;;;23.66;56.20;100994.88;5091660;28;46640;-74
2022/08/23 05:56:26;;;;;;;;;3.00;3.00;;;;;23.77;56.68;101020.06;5093935;27;45124;-72
2022/08/23 05:58:54;;;;;;;;;3.00;3.00;;;;;23.70;56.93;101018.44;5091960;28;45113;-73
2022/08/23 06:01:20;;;;;;;;;2.67;2.33;;;;;23.60;57.42;101004.13;5093399;28;45706;-74
2022/08/23 06:03:46;;;;;;;;;5.00;4.00;;;;;23.62;57.44;101020.44;5092197;27;47859;-72
2022/08/23 06:06:14;;;;;;;;;8.00;5.67;;;;;23.53;57.66;101011.53;5092431;27;45505;-73
2022/08/23 06:08:40;;;;;;;;;5.33;5.33;;;;;23.62;57.43;101026.78;5091473;28;45085;-72
2022/08/23 06:11:12;;;;;;;;;3.00;3.00;;;;;23.51;57.38;101009.78;5092549;27;44903;-72
2022/08/23 06:13:43;;;;;;;;;3.00;3.00;;;;;23.59;57.54;101025.97;5092930;28;45934;-72
2022/08/23 06:16:11;;;;;;;;;4.33;4.33;;;;;23.51;57.38;101005.25;5091992;27;45190;-74
2022/08/23 06:18:36;;;;;;;;;7.67;5.33;;;;;23.62;57.39;101025.91;5092393;27;45138;-72
2022/08/23 06:21:07;;;;;;;;;3.67;3.67;;;;;23.66;57.46;101036.72;5092314;28;45339;-73
2022/08/23 06:23:34;;;;;;;;;3.33;3.33;;;;;23.65;57.42;101025.84;5092513;28;47402;-74
2022/08/23 06:26:00;;;;;;;;;4.00;3.00;;;;;23.69;57.33;101042.09;5090247;27;45224;-72
2022/08/23 06:28:28;;;;;;;;;5.67;4.00;;;;;23.74;56.87;101036.50;5082841;28;45619;-72
2022/08/23 06:30:55;;;;;;;;;3.67;3.67;;;;;23.65;57.47;101031.28;5090781;28;45200;-73
2022/08/23 06:33:20;;;;;;;;;2.67;2.67;;;;;23.68;57.50;101031.22;5092550;27;45682;-75
2022/08/23 06:35:47;;;;;;;;;12.00;7.33;;;;;23.54;56.93;101007.91;5088113;27;44913;-72
2022/08/23 06:38:13;;;;;;;;;5.33;5.33;;;;;23.79;56.96;101042.78;5089600;27;45105;-72
2022/08/23 06:40:38;;;;;;;;;5.67;4.00;;;;;23.87;56.69;101050.81;5081839;27;45558;-72
2022/08/23 06:43:03;;;;;;;;;8.00;6.33;;;;;23.92;56.71;101051.59;5071142;28;47622;-73
2022/08/23 06:45:30;;;;;;;;;7.67;5.00;;;;;23.95;56.78;101048.78;5080483;28;45538;-73
2022/08/23 06:47:56;;;;;;;;;8.00;5.33;;;;;23.92;56.80;101046.13;5096785;27;45493;-72
2022/08/23 06:50:22;;;;;;;;;7.33;7.33;;;;;23.96;56.38;101049.69;5076641;27;45485;-72
2022/08/23 06:52:48;;;;;;;;;5.67;4.67;;;;;23.97;56.83;101049.63;5079965;28;45559;-73
2022/08/23 06:55:14;;;;;;;;;8.67;7.67;;;;;24.03;56.68;101048.59;5077739;27;45462;-73
2022/08/23 06:57:39;;;;;;;;;12.67;11.00;;;;;24.05;56.52;101041.25;5086013;28;44958;-73
2022/08/23 07:00:07;;;;;;;;;7.00;7.00;;;;;24.07;56.51;101055.75;5084235;27;45321;-72
2022/08/23 07:02:32;;;;;;;;;7.33;5.33;;;;;24.08;56.31;101042.06;5092308;27;45241;-72
2022/08/23 07:04:58;;;;;;;;;6.00;3.33;;;;;23.88;56.44;101001.66;5092760;27;45236;-73
2022/08/23 07:07:23;;;;;;;;;3.00;3.00;;;;;24.22;55.92;101054.47;5091641;28;45173;-71
2022/08/23 07:09:48;;;;;;;;;6.00;4.67;;;;;24.20;56.30;101054.53;5092258;27;45267;-72
2022/08/23 07:12:14;;;;;;;;;6.33;4.00;;;;;24.26;56.04;101050.75;5090443;28;45497;-70
2022/08/23 07:14:41;;;;;;;;;7.33;4.67;;;;;24.36;55.71;101070.53;5088394;28;45067;-71
2022/08/23 07:17:08;;;;;;;;;7.00;4.00;;;;;24.38;55.66;101057.72;5081683;28;45480;-71
2022/08/23 07:19:34;;;;;;;;;4.67;3.00;;;;;24.49;56.03;101068.38;5077509;27;45473;-71
2022/08/23 07:22:02;;;;;;;;;4.67;4.33;;;;;24.34;55.96;101032.34;5072808;27;46559;-71
2022/08/23 07:24:28;;;;;;;;;3.33;3.00;;;;;24.42;55.65;101043.06;5084484;27;45465;-71
2022/08/23 07:26:54;;;;;;;;;6.00;5.00;;;;;24.62;55.50;101075.34;5086100;28;45385;-72
2022/08/23 07:29:21;;;;;;;;;3.33;1.33;;;;;24.70;55.71;101081.50;5073485;27;46080;-72
2022/08/23 07:31:49;;;;;;;;;3.33;3.33;;;;;24.54;55.75;101037.25;5081480;27;46177;-71
2022/08/23 07:34:15;;;;;;;;;8.00;6.67;;;;;24.92;55.64;101083.66;5084447;28;45447;-73
2022/08/23 07:36:42;;;;;;;;;6.33;5.33;;;;;24.86;55.72;101057.34;5074446;28;45458;-71
2022/08/23 07:39:09;;;;;;;;;8.67;8.67;;;;;25.01;55.47;101076.09;5074487;27;45374;-71
2022/08/23 07:41:37;;;;;;;;;4.00;4.00;;;;;25.12;55.24;101073.03;5073962;27;45433;-70
2022/08/23 07:44:04;;;;;;;;;4.00;2.00;;;;;25.28;54.79;101083.56;5072515;28;45941;-75
2022/08/23 07:46:31;;;;;;;;;2.00;2.00;;;;;25.37;54.58;101089.63;5086560;27;45418;-73
2022/08/23 07:48:58;;;;;;;;;8.00;5.00;;;;;25.34;54.19;101058.75;5078790;28;45699;-71
2022/08/23 07:51:24;;;;;;;;;4.67;4.67;;;;;25.40;54.13;101055.84;5089566;28;45195;-72
2022/08/23 07:53:50;;;;;;;;;4.00;3.00;;;;;25.60;54.58;101084.44;5080838;27;46228;-72
2022/08/23 07:56:17;;;;;;;;;9.33;7.67;;;;;25.61;54.33;101087.13;5073804;27;45464;-71
2022/08/23 07:58:43;;;;;;;;;4.00;4.00;;;;;25.58;54.28;101092.69;5081342;27;45414;-73
2022/08/23 08:01:15;;;;;;;;;13.67;10.00;;;;;25.50;54.20;101081.97;5073639;27;46653;-73
2022/08/23 08:03:43;;;;;;;;;2.33;2.33;;;;;25.53;54.58;101083.72;5074042;27;45507;-72
2022/08/23 08:06:14;;;;;;;;;2.00;2.00;;;;;25.62;54.75;101096.22;5072301;28;45416;-72
2022/08/23 08:08:40;;;;;;;;;2.67;2.67;;;;;25.70;54.28;101083.19;5074768;28;45565;-72
2022/08/23 08:11:07;;;;;;;;;2.67;2.33;;;;;25.88;54.04;101087.19;5073583;28;46489;-73
2022/08/23 08:13:36;;;;;;;;;5.00;3.00;;;;;25.90;53.62;101077.06;5073912;27;45556;-72
2022/08/23 08:16:02;;;;;;;;;3.00;3.00;;;;;25.99;53.07;101085.03;5073672;28;45461;-75
2022/08/23 08:18:28;;;;;;;;;4.00;4.00;;;;;26.06;52.82;101083.00;5073628;28;45416;-74
2022/08/23 08:20:54;;;;;;;;;3.67;3.67;;;;;26.00;53.15;101086.81;5073356;28;46005;-72
2022/08/23 08:23:19;;;;;;;;;5.33;5.33;;;;;26.05;53.01;101090.31;5073545;28;45485;-73
2022/08/23 08:25:45;;;;;;;;;2.67;2.33;;;;;26.10;52.74;101095.63;5073884;27;45776;-72
2022/08/23 08:28:11;;;;;;;;;3.33;2.33;;;;;26.14;52.77;101089.13;5074166;28;45344;-73
2022/08/23 08:30:38;;;;;;;;;4.00;4.00;;;;;26.15;52.45;101088.19;5073733;27;45817;-71
2022/08/23 08:33:03;;;;;;;;;6.67;5.33;;;;;26.22;52.33;101091.63;5073486;27;45754;-71
2022/08/23 08:35:28;;;;;;;;;2.00;2.00;;;;;26.26;52.35;101099.66;5072060;28;45396;-72
2022/08/23 08:37:54;;;;;;;;;3.00;3.00;;;;;26.02;52.08;101048.44;5073703;28;45515;-72
2022/08/23 08:40:27;;;;;;;;;5.67;3.00;;;;;26.26;51.56;101066.78;5073324;28;45457;-72
2022/08/23 08:43:12;;;;;;;;;3.00;3.00;;;;;26.52;51.36;101102.47;5068105;28;45393;-72
2022/08/23 08:46:05;;;;;;;;;3.00;3.00;;;;;26.61;51.30;101104.88;5073804;28;45404;-72
2022/08/23 08:48:39;;;;;;;;;4.67;4.33;;;;;26.57;51.56;101086.78;5061674;28;45262;-73
2022/08/23 08:51:27;;;;;;;;;5.00;3.67;;;;;26.70;51.72;101106.47;5071260;28;46305;-73
2022/08/23 08:53:55;;;;;;;;;2.00;2.00;;;;;26.54;51.81;101076.78;5072964;27;45412;-72
2022/08/23 08:56:26;;;;;;;;;5.00;3.00;;;;;26.73;51.57;101107.25;5072767;27;45449;-73
2022/08/23 08:58:54;;;;;;;;;3.00;3.00;;;;;26.53;51.26;101063.16;5071786;28;45637;-71
2022/08/23 09:01:23;;;;;;;;;5.33;4.00;;;;;26.80;51.13;101105.19;5072922;27;45545;-73
2022/08/23 09:03:48;;;;;;;;;2.67;2.67;;;;;26.82;51.01;101108.75;5073001;27;45387;-72
2022/08/23 09:06:17;;;;;;;;;2.33;2.33;;;;;26.62;50.74;101074.69;5075213;27;45715;-74
2022/08/23 09:08:54;;;;;;;;;2.00;2.00;;;;;26.81;50.52;101112.44;5076950;27;45490;-71
2022/08/23 09:11:25;;;;;;;;;6.00;5.00;;;;;26.84;50.36;101115.06;5076378;28;46409;-73
2022/08/23 09:14:18;;;;;;;;;3.33;3.33;;;;;26.70;50.93;101087.28;5076135;28;45251;-72
2022/08/23 09:16:51;;;;;;;;;3.33;3.00;;;;;26.90;50.60;101114.84;5076000;28;45624;-72
2022/08/23 09:19:19;;;;;;;;;6.33;4.67;;;;;26.74;50.51;101089.81;5076605;28;45404;-73
2022/08/23 09:21:58;;;;;;;;;5.00;5.00;;;;;26.90;50.83;101106.63;5075859;28;45595;-73
2022/08/23 09:24:25;;;;;;;;;4.00;4.00;;;;;26.98;50.88;101104.50;5076361;28;45512;-71
2022/08/23 09:26:52;;;;;;;;;2.00;2.00;;;;;26.89;49.85;101077.41;5075861;27;45496;-71
2022/08/23 09:29:27;;;;;;;;;2.67;2.67;;;;;27.02;49.98;101100.69;5069510;28;46217;-72
2022/08/23 09:32:02;;;;;;;;;7.00;4.67;;;;;26.97;49.87;101094.47;5073657;28;46168;-73
2022/08/23 09:34:36;;;;;;;;;6.00;5.00;;;;;27.10;50.12;101116.88;5075712;27;45536;-74
2022/08/23 09:37:19;;;;;;;;;3.00;3.00;;;;;27.10;49.96;101114.13;5070419;28;45375;-73
2022/08/23 09:40:12;;;;;;;;;5.00;3.67;;;;;26.98;49.99;101112.72;5076206;28;45607;-72
2022/08/23 09:42:40;;;;;;;;;6.33;5.33;;;;;26.88;50.69;101078.38;5075474;27;45340;-72
2022/08/23 09:45:26;;;;;;;;;4.33;1.00;;;;;27.05;50.45;101118.00;5075415;28;45567;-75
2022/08/23 09:47:52;;;;;;;;;12.33;12.33;;;;;27.07;50.67;101114.22;5075102;27;45408;-72
2022/08/23 09:50:25;;;;;;;;;13.00;11.00;;;;;27.12;50.37;101112.22;5075838;27;45971;-75
2022/08/23 09:53:12;;;;;;;;;4.67;4.00;;;;;27.16;49.79;101113.03;5075084;27;46161;-73
2022/08/23 09:55:46;;;;;;;;;4.00;4.00;;;;;27.22;49.99;101118.25;5075637;27;45549;-72
2022/08/23 09:58:31;;;;;;;;;3.33;3.33;;;;;27.29;50.12;101117.13;5074557;27;45699;-75
2022/08/23 10:01:25;;;;;;;;;9.67;7.67;;;;;27.36;49.88;101118.69;5071582;28;45465;-74
2022/08/23 10:04:11;;;;;;;;;4.00;4.00;;;;;27.43;49.60;101105.63;5075616;28;45441;-72
2022/08/23 10:06:39;;;;;;;;;7.33;7.33;;;;;27.50;49.36;101092.56;5069312;28;45286;-72
2022/08/23 10:09:07;;;;;;;;;5.33;2.67;;;;;27.75;49.26;101103.44;5069106;27;45566;-74
2022/08/23 10:11:40;;;;;;;;;7.67;6.67;;;;;27.91;48.83;101101.00;5075124;28;45464;-73
2022/08/23 10:14:09;;;;;;;;;2.67;2.67;;;;;28.02;48.49;101097.88;5069445;28;46252;-75
2022/08/23 10:17:13;;;;;;;;;25.00;21.00;;;;;28.08;48.14;101097.59;5075701;27;45589;-73
2022/08/23 10:19:58;;;;;;;;;5.33;5.33;;;;;28.11;48.16;101094.72;5073946;28;45430;-74
2022/08/23 10:22:27;;;;;;;;;4.67;4.67;;;;;28.09;47.96;101099.41;5070362;28;45984;-74
2022/08/23 10:25:20;;;;;;;;;2.00;2.00;;;;;28.07;47.20;101088.47;5073238;28;47572;-73
2022/08/23 10:30:48;;;;;;;;;4.67;2.67;;;;;28.05;47.99;101092.22;5069846;28;45444;-73
2022/08/23 10:33:40;;;;;;;;;2.00;2.00;;;;;27.93;48.02;101058.84;5075181;28;45582;-74
2022/08/23 10:36:32;;;;;;;;;9.00;6.33;;;;;28.03;47.92;101050.19;5072910;27;48683;-74
2022/08/23 10:39:02;;;;;;;;;5.67;4.67;;;;;28.17;47.04;101060.63;5074997;28;45645;-73
2022/08/23 10:42:09;;;;;;;;;3.00;3.00;;;;;28.28;46.83;101083.06;5075258;28;45458;-73
2022/08/23 10:44:52;;;;;;;;;2.00;2.00;;;;;28.29;46.43;101071.97;5060993;28;45551;-73
2022/08/23 10:47:29;;;;;;;;;2.67;2.00;;;;;28.14;46.85;101042.41;5074712;27;46417;-73
2022/08/23 10:49:59;;;;;;;;;1.00;1.00;;;;;28.29;46.87;101060.09;5074676;27;45462;-76
2022/08/23 10:52:39;;;;;;;;;1.33;1.33;;;;;28.38;47.68;101070.69;5074950;28;45550;-73
2022/08/23 10:55:23;;;;;;;;;1.00;1.00;;;;;28.16;47.37;101034.09;5087478;27;45851;-75
2022/08/23 10:57:52;;;;;;;;;1.33;1.33;;;;;28.26;47.48;101062.97;5071107;27;45331;-73
2022/08/23 11:00:21;;;;;;;;;2.00;2.00;;;;;28.28;47.08;101074.81;5075153;27;45434;-73
2022/08/23 11:02:54;;;;;;;;;2.00;2.00;;;;;28.18;47.01;101082.53;5074827;27;45496;-75
2022/08/23 11:05:31;;;;;;;;;2.00;2.00;;;;;28.11;47.12;101075.50;5073100;27;45596;-73
2022/08/23 11:07:58;;;;;;;;;2.67;2.67;;;;;27.56;47.64;100996.25;5074061;28;46303;-74
2022/08/23 11:10:33;;;;;;;;;5.00;5.00;;;;;27.92;47.44;101070.72;5074393;27;45456;-73
2022/08/23 11:13:21;;;;;;;;;2.33;2.33;;;;;27.85;47.20;101068.28;5074649;27;45372;-73
2022/08/23 11:16:12;;;;;;;;;4.00;4.00;;;;;27.81;47.91;101067.53;5068949;28;45522;-75
2022/08/23 11:18:45;;;;;;;;;1.00;1.00;;;;;27.76;47.52;101067.69;5071799;27;45346;-74
2022/08/23 11:21:16;;;;;;;;;5.00;5.00;;;;;27.70;47.90;101067.97;5073920;28;45487;-72
2022/08/23 11:23:48;;;;;;;;;3.00;3.00;;;;;27.63;47.75;101068.28;5053911;27;45410;-74
2022/08/23 11:26:25;;;;;;;;;1.00;1.00;;;;;27.54;47.29;101067.69;5073861;28;45452;-75
2022/08/23 11:28:53;;;;;;;;;4.33;2.00;;;;;27.54;47.90;101066.78;5067252;28;45306;-73
2022/08/23 11:31:41;;;;;;;;;1.00;1.00;;;;;27.60;47.76;101061.03;5067351;28;45335;-73
2022/08/23 11:34:19;;;;;;;;;2.00;1.00;;;;;27.61;47.64;101064.69;5072467;27;45575;-73
2022/08/23 11:37:18;;;;;;;;;1.00;1.00;;;;;27.65;47.30;101061.75;5074159;27;45496;-75
2022/08/23 11:40:14;;;;;;;;;1.00;1.00;;;;;27.69;46.34;101049.69;5068679;28;45495;-74
2022/08/23 11:42:50;;;;;;;;;1.00;1.00;;;;;27.88;46.65;101060.84;5053903;28;45417;-73
2022/08/23 11:45:43;;;;;;;;;1.00;1.00;;;;;28.05;46.16;101065.66;5067833;28;45531;-75
2022/08/23 11:48:38;;;;;;;;;1.00;1.00;;;;;28.25;45.41;101055.69;5070366;28;45459;-73